sensor_id;sensor_type;location;lat;lon;timestamp;temperature;humidity
7920;DHT22;18778;47.610;9.776;2023-07-08T00:00:21;18.40;95.90
7920;DHT22;18778;47.610;9.776;2023-07-08T00:02:47;18.30;96.30
7920;DHT22;18778;47.610;9.776;2023-07-08T00:05:15;18.30;96.60
7920;DHT22;18778;47.610;9.776;2023-07-08T00:07:42;18.20;96.90
7920;DHT22;18778;47.610;9.776;2023-07-08T00:10:23;18.20;97.20
7920;DHT22;18778;47.610;9.776;2023-07-08T00:12:52;18.10;97.50
7920;DHT22;18778;47.610;9.776;2023-07-08T00:15:20;18.10;97.80
7920;DHT22;18778;47.610;9.776;2023-07-08T00:17:46;18.10;98.10
7920;DHT22;18778;47.610;9.776;2023-07-08T00:20:19;18.00;98.70
7920;DHT22;18778;47.610;9.776;2023-07-08T00:25:17;18.00;98.60
7920;DHT22;18778;47.610;9.776;2023-07-08T00:27:45;18.00;99.00
7920;DHT22;18778;47.610;9.776;2023-07-08T00:30:32;18.00;99.10
7920;DHT22;18778;47.610;9.776;2023-07-08T00:32:58;18.10;98.90
7920;DHT22;18778;47.610;9.776;2023-07-08T00:35:38;18.10;99.20
7920;DHT22;18778;47.610;9.776;2023-07-08T00:40:38;18.00;99.90
7920;DHT22;18778;47.610;9.776;2023-07-08T00:43:12;18.00;99.90
7920;DHT22;18778;47.610;9.776;2023-07-08T00:45:46;18.00;99.90
7920;DHT22;18778;47.610;9.776;2023-07-08T00:53:22;18.00;99.90
7920;DHT22;18778;47.610;9.776;2023-07-08T00:55:51;17.90;99.90
7920;DHT22;18778;47.610;9.776;2023-07-08T00:58:20;17.80;99.90
7920;DHT22;18778;47.610;9.776;2023-07-08T01:00:46;17.90;99.90
7920;DHT22;18778;47.610;9.776;2023-07-08T01:03:15;17.90;99.90
7920;DHT22;18778;47.610;9.776;2023-07-08T01:05:42;17.90;99.90
7920;DHT22;18778;47.610;9.776;2023-07-08T01:08:09;17.90;99.90
7920;DHT22;18778;47.610;9.776;2023-07-08T01:10:44;19.60;99.90
7920;DHT22;18778;47.610;9.776;2023-07-08T01:13:12;19.50;99.90
7920;DHT22;18778;47.610;9.776;2023-07-08T01:15:43;17.80;99.90
7920;DHT22;18778;47.610;9.776;2023-07-08T01:18:10;17.70;99.90
7920;DHT22;18778;47.610;9.776;2023-07-08T01:20:37;17.80;99.90
7920;DHT22;18778;47.610;9.776;2023-07-08T01:23:03;18.10;99.90
7920;DHT22;18778;47.610;9.776;2023-07-08T01:27:56;18.00;99.90
7920;DHT22;18778;47.610;9.776;2023-07-08T01:30:23;18.00;99.90
7920;DHT22;18778;47.610;9.776;2023-07-08T01:32:51;20.20;99.90
7920;DHT22;18778;47.610;9.776;2023-07-08T01:35:20;21.20;99.90
7920;DHT22;18778;47.610;9.776;2023-07-08T01:37:52;18.10;99.90
7920;DHT22;18778;47.610;9.776;2023-07-08T01:42:50;18.00;99.90
7920;DHT22;18778;47.610;9.776;2023-07-08T01:45:20;17.90;99.90
7920;DHT22;18778;47.610;9.776;2023-07-08T01:47:58;20.40;99.90
7920;DHT22;18778;47.610;9.776;2023-07-08T01:50:25;17.90;99.90
7920;DHT22;18778;47.610;9.776;2023-07-08T01:52:52;20.30;99.90
7920;DHT22;18778;47.610;9.776;2023-07-08T01:55:23;18.50;99.90
7920;DHT22;18778;47.610;9.776;2023-07-08T01:57:51;19.70;99.90
7920;DHT22;18778;47.610;9.776;2023-07-08T02:00:19;19.30;99.90
7920;DHT22;18778;47.610;9.776;2023-07-08T02:02:45;17.70;99.90
7920;DHT22;18778;47.610;9.776;2023-07-08T02:05:10;20.00;99.90
7920;DHT22;18778;47.610;9.776;2023-07-08T02:07:36;17.50;99.90
7920;DHT22;18778;47.610;9.776;2023-07-08T02:10:01;17.60;99.90
7920;DHT22;18778;47.610;9.776;2023-07-08T02:12:27;17.60;99.90
7920;DHT22;18778;47.610;9.776;2023-07-08T02:14:52;20.70;99.90
7920;DHT22;18778;47.610;9.776;2023-07-08T02:17:18;21.10;99.90
7920;DHT22;18778;47.610;9.776;2023-07-08T02:19:44;17.60;99.90
7920;DHT22;18778;47.610;9.776;2023-07-08T02:22:09;18.40;99.90
7920;DHT22;18778;47.610;9.776;2023-07-08T02:24:35;17.70;99.90
7920;DHT22;18778;47.610;9.776;2023-07-08T02:27:01;17.70;99.90
7920;DHT22;18778;47.610;9.776;2023-07-08T02:29:38;17.70;99.90
7920;DHT22;18778;47.610;9.776;2023-07-08T02:32:04;17.50;99.90
7920;DHT22;18778;47.610;9.776;2023-07-08T02:34:30;17.70;99.90
7920;DHT22;18778;47.610;9.776;2023-07-08T02:36:55;17.60;99.90
7920;DHT22;18778;47.610;9.776;2023-07-08T02:39:22;20.60;99.90
7920;DHT22;18778;47.610;9.776;2023-07-08T02:41:47;17.90;99.90
7920;DHT22;18778;47.610;9.776;2023-07-08T02:44:13;17.90;99.90
7920;DHT22;18778;47.610;9.776;2023-07-08T02:46:38;17.90;99.90
7920;DHT22;18778;47.610;9.776;2023-07-08T02:51:31;17.90;99.90
7920;DHT22;18778;47.610;9.776;2023-07-08T02:53:56;18.40;99.90
7920;DHT22;18778;47.610;9.776;2023-07-08T02:56:22;18.00;99.90
7920;DHT22;18778;47.610;9.776;2023-07-08T02:58:49;20.40;99.90
7920;DHT22;18778;47.610;9.776;2023-07-08T03:01:15;17.70;99.90
7920;DHT22;18778;47.610;9.776;2023-07-08T03:03:46;17.30;99.90
7920;DHT22;18778;47.610;9.776;2023-07-08T03:06:12;18.70;99.90
7920;DHT22;18778;47.610;9.776;2023-07-08T03:08:38;18.60;99.90
7920;DHT22;18778;47.610;9.776;2023-07-08T03:11:05;17.80;99.90
7920;DHT22;18778;47.610;9.776;2023-07-08T03:13:32;20.50;99.90
7920;DHT22;18778;47.610;9.776;2023-07-08T03:15:59;17.40;99.90
7920;DHT22;18778;47.610;9.776;2023-07-08T03:18:25;18.70;99.90
7920;DHT22;18778;47.610;9.776;2023-07-08T03:20:52;17.70;99.90
7920;DHT22;18778;47.610;9.776;2023-07-08T03:23:17;18.10;99.90
7920;DHT22;18778;47.610;9.776;2023-07-08T03:25:43;17.50;99.90
7920;DHT22;18778;47.610;9.776;2023-07-08T03:28:08;19.40;99.90
7920;DHT22;18778;47.610;9.776;2023-07-08T03:30:41;19.00;99.90
7920;DHT22;18778;47.610;9.776;2023-07-08T03:33:07;18.60;99.90
7920;DHT22;18778;47.610;9.776;2023-07-08T03:35:32;17.80;99.90
7920;DHT22;18778;47.610;9.776;2023-07-08T03:37:58;20.70;99.90
7920;DHT22;18778;47.610;9.776;2023-07-08T03:40:23;17.40;99.90
7920;DHT22;18778;47.610;9.776;2023-07-08T03:42:49;19.40;99.90
7920;DHT22;18778;47.610;9.776;2023-07-08T03:45:18;17.50;99.90
7920;DHT22;18778;47.610;9.776;2023-07-08T03:47:43;20.30;99.90
7920;DHT22;18778;47.610;9.776;2023-07-08T03:50:17;17.40;99.90
7920;DHT22;18778;47.610;9.776;2023-07-08T03:52:45;17.40;99.90
7920;DHT22;18778;47.610;9.776;2023-07-08T03:55:11;17.40;99.90
7920;DHT22;18778;47.610;9.776;2023-07-08T03:57:37;17.60;99.90
7920;DHT22;18778;47.610;9.776;2023-07-08T04:00:03;17.30;99.90
7920;DHT22;18778;47.610;9.776;2023-07-08T04:02:29;17.50;99.90
7920;DHT22;18778;47.610;9.776;2023-07-08T04:04:54;18.60;99.90
7920;DHT22;18778;47.610;9.776;2023-07-08T04:07:20;18.20;99.90
7920;DHT22;18778;47.610;9.776;2023-07-08T04:09:45;19.70;99.90
7920;DHT22;18778;47.610;9.776;2023-07-08T04:12:15;17.90;99.90
7920;DHT22;18778;47.610;9.776;2023-07-08T04:14:41;18.20;99.90
7920;DHT22;18778;47.610;9.776;2023-07-08T04:17:08;17.70;99.90
7920;DHT22;18778;47.610;9.776;2023-07-08T04:19:34;17.80;99.90
7920;DHT22;18778;47.610;9.776;2023-07-08T04:22:01;17.80;99.90
7920;DHT22;18778;47.610;9.776;2023-07-08T04:24:27;17.80;99.90
7920;DHT22;18778;47.610;9.776;2023-07-08T04:26:53;19.40;99.90
7920;DHT22;18778;47.610;9.776;2023-07-08T04:29:21;17.40;99.90
7920;DHT22;18778;47.610;9.776;2023-07-08T04:31:47;18.00;99.90
7920;DHT22;18778;47.610;9.776;2023-07-08T04:34:15;18.10;99.90
7920;DHT22;18778;47.610;9.776;2023-07-08T04:36:40;20.50;99.90
7920;DHT22;18778;47.610;9.776;2023-07-08T04:39:07;18.00;99.90
7920;DHT22;18778;47.610;9.776;2023-07-08T04:41:35;18.40;99.90
7920;DHT22;18778;47.610;9.776;2023-07-08T04:44:08;18.90;99.90
7920;DHT22;18778;47.610;9.776;2023-07-08T04:46:48;18.20;99.90
7920;DHT22;18778;47.610;9.776;2023-07-08T04:51:42;18.20;99.90
7920;DHT22;18778;47.610;9.776;2023-07-08T04:54:09;19.00;99.90
7920;DHT22;18778;47.610;9.776;2023-07-08T04:56:40;18.20;99.90
7920;DHT22;18778;47.610;9.776;2023-07-08T04:59:12;18.20;99.90
7920;DHT22;18778;47.610;9.776;2023-07-08T05:01:39;18.30;99.90
7920;DHT22;18778;47.610;9.776;2023-07-08T05:04:05;19.30;99.90
7920;DHT22;18778;47.610;9.776;2023-07-08T05:06:32;18.50;99.90
7920;DHT22;18778;47.610;9.776;2023-07-08T05:08:59;21.00;99.90
7920;DHT22;18778;47.610;9.776;2023-07-08T05:11:24;20.00;99.90
7920;DHT22;18778;47.610;9.776;2023-07-08T05:13:50;18.50;99.90
7920;DHT22;18778;47.610;9.776;2023-07-08T05:16:16;18.50;99.90
7920;DHT22;18778;47.610;9.776;2023-07-08T05:18:41;18.40;99.90
7920;DHT22;18778;47.610;9.776;2023-07-08T05:21:08;17.60;99.90
7920;DHT22;18778;47.610;9.776;2023-07-08T05:23:34;20.80;99.90
7920;DHT22;18778;47.610;9.776;2023-07-08T05:26:01;21.30;99.90
7920;DHT22;18778;47.610;9.776;2023-07-08T05:28:27;18.70;99.90
7920;DHT22;18778;47.610;9.776;2023-07-08T05:30:53;18.80;99.90
7920;DHT22;18778;47.610;9.776;2023-07-08T05:33:24;18.90;99.90
7920;DHT22;18778;47.610;9.776;2023-07-08T05:35:50;20.70;99.90
7920;DHT22;18778;47.610;9.776;2023-07-08T05:38:16;19.00;99.90
7920;DHT22;18778;47.610;9.776;2023-07-08T05:40:42;21.50;99.90
7920;DHT22;18778;47.610;9.776;2023-07-08T05:43:07;19.20;99.90
7920;DHT22;18778;47.610;9.776;2023-07-08T05:45:33;19.20;99.90
7920;DHT22;18778;47.610;9.776;2023-07-08T05:48:00;21.30;99.90
7920;DHT22;18778;47.610;9.776;2023-07-08T05:50:26;19.40;99.90
7920;DHT22;18778;47.610;9.776;2023-07-08T05:52:51;19.40;99.90
7920;DHT22;18778;47.610;9.776;2023-07-08T05:55:17;19.50;99.90
7920;DHT22;18778;47.610;9.776;2023-07-08T05:57:43;19.50;99.90
7920;DHT22;18778;47.610;9.776;2023-07-08T06:00:09;19.70;99.90
7920;DHT22;18778;47.610;9.776;2023-07-08T06:02:36;19.70;99.90
7920;DHT22;18778;47.610;9.776;2023-07-08T06:05:01;19.80;99.90
7920;DHT22;18778;47.610;9.776;2023-07-08T06:07:27;21.20;99.90
7920;DHT22;18778;47.610;9.776;2023-07-08T06:09:53;23.20;99.90
7920;DHT22;18778;47.610;9.776;2023-07-08T06:12:22;20.00;99.90
7920;DHT22;18778;47.610;9.776;2023-07-08T06:14:47;20.00;99.90
7920;DHT22;18778;47.610;9.776;2023-07-08T06:17:13;20.00;99.90
7920;DHT22;18778;47.610;9.776;2023-07-08T06:19:38;20.20;99.90
7920;DHT22;18778;47.610;9.776;2023-07-08T06:22:04;20.10;99.90
7920;DHT22;18778;47.610;9.776;2023-07-08T06:24:30;20.00;99.90
7920;DHT22;18778;47.610;9.776;2023-07-08T06:26:55;20.20;99.90
7920;DHT22;18778;47.610;9.776;2023-07-08T06:29:21;20.20;99.90
7920;DHT22;18778;47.610;9.776;2023-07-08T06:34:12;20.50;99.90
7920;DHT22;18778;47.610;9.776;2023-07-08T06:36:38;20.70;99.90
7920;DHT22;18778;47.610;9.776;2023-07-08T06:41:32;21.10;99.90
7920;DHT22;18778;47.610;9.776;2023-07-08T06:43:58;21.20;99.90
7920;DHT22;18778;47.610;9.776;2023-07-08T06:46:24;21.40;99.90
7920;DHT22;18778;47.610;9.776;2023-07-08T06:48:50;21.50;99.90
7920;DHT22;18778;47.610;9.776;2023-07-08T06:51:15;21.60;99.90
7920;DHT22;18778;47.610;9.776;2023-07-08T06:53:41;22.30;99.90
7920;DHT22;18778;47.610;9.776;2023-07-08T06:56:07;22.00;99.90
7920;DHT22;18778;47.610;9.776;2023-07-08T06:58:33;22.70;99.90
7920;DHT22;18778;47.610;9.776;2023-07-08T07:00:59;22.10;99.90
7920;DHT22;18778;47.610;9.776;2023-07-08T07:03:25;22.10;99.90
7920;DHT22;18778;47.610;9.776;2023-07-08T07:08:16;22.20;99.90
7920;DHT22;18778;47.610;9.776;2023-07-08T07:10:42;22.30;99.90
7920;DHT22;18778;47.610;9.776;2023-07-08T07:13:08;22.40;99.90
7920;DHT22;18778;47.610;9.776;2023-07-08T07:15:34;22.40;99.90
7920;DHT22;18778;47.610;9.776;2023-07-08T07:18:00;22.40;99.90
7920;DHT22;18778;47.610;9.776;2023-07-08T07:20:26;22.50;99.90
7920;DHT22;18778;47.610;9.776;2023-07-08T07:22:52;22.70;99.90
7920;DHT22;18778;47.610;9.776;2023-07-08T07:25:18;22.80;99.90
7920;DHT22;18778;47.610;9.776;2023-07-08T07:27:44;22.90;99.90
7920;DHT22;18778;47.610;9.776;2023-07-08T07:30:10;23.10;99.90
7920;DHT22;18778;47.610;9.776;2023-07-08T07:32:43;23.20;99.90
7920;DHT22;18778;47.610;9.776;2023-07-08T07:35:10;23.20;99.90
7920;DHT22;18778;47.610;9.776;2023-07-08T07:37:40;23.30;99.90
7920;DHT22;18778;47.610;9.776;2023-07-08T07:40:09;23.40;99.90
7920;DHT22;18778;47.610;9.776;2023-07-08T07:42:41;23.50;99.90
7920;DHT22;18778;47.610;9.776;2023-07-08T07:45:07;23.70;99.90
7920;DHT22;18778;47.610;9.776;2023-07-08T07:47:34;23.80;99.90
7920;DHT22;18778;47.610;9.776;2023-07-08T07:49:59;24.00;99.90
7920;DHT22;18778;47.610;9.776;2023-07-08T07:52:25;24.30;99.90
7920;DHT22;18778;47.610;9.776;2023-07-08T07:54:51;24.30;99.90
7920;DHT22;18778;47.610;9.776;2023-07-08T07:57:19;24.30;99.90
7920;DHT22;18778;47.610;9.776;2023-07-08T07:59:46;24.30;99.90
7920;DHT22;18778;47.610;9.776;2023-07-08T08:02:11;24.30;99.90
7920;DHT22;18778;47.610;9.776;2023-07-08T08:04:37;24.30;99.90
7920;DHT22;18778;47.610;9.776;2023-07-08T08:07:03;24.50;99.90
7920;DHT22;18778;47.610;9.776;2023-07-08T08:09:29;24.70;99.90
7920;DHT22;18778;47.610;9.776;2023-07-08T08:11:54;24.70;99.90
7920;DHT22;18778;47.610;9.776;2023-07-08T08:14:20;24.80;99.90
7920;DHT22;18778;47.610;9.776;2023-07-08T08:16:46;24.80;99.90
7920;DHT22;18778;47.610;9.776;2023-07-08T08:19:11;24.70;99.90
7920;DHT22;18778;47.610;9.776;2023-07-08T08:21:37;24.50;99.90
7920;DHT22;18778;47.610;9.776;2023-07-08T08:24:03;24.40;99.90
7920;DHT22;18778;47.610;9.776;2023-07-08T08:28:55;24.60;99.90
7920;DHT22;18778;47.610;9.776;2023-07-08T08:31:21;24.80;99.90
7920;DHT22;18778;47.610;9.776;2023-07-08T08:33:46;24.80;99.90
7920;DHT22;18778;47.610;9.776;2023-07-08T08:36:12;24.90;99.90
7920;DHT22;18778;47.610;9.776;2023-07-08T08:38:38;24.90;99.90
7920;DHT22;18778;47.610;9.776;2023-07-08T08:41:14;24.90;99.90
7920;DHT22;18778;47.610;9.776;2023-07-08T08:43:41;25.00;99.90
7920;DHT22;18778;47.610;9.776;2023-07-08T08:49:10;24.90;99.90
7920;DHT22;18778;47.610;9.776;2023-07-08T08:51:39;25.00;99.90
7920;DHT22;18778;47.610;9.776;2023-07-08T08:54:07;25.10;99.90
7920;DHT22;18778;47.610;9.776;2023-07-08T08:56:58;25.20;99.90
7920;DHT22;18778;47.610;9.776;2023-07-08T08:59:49;25.30;99.90
7920;DHT22;18778;47.610;9.776;2023-07-08T09:04:43;25.60;99.90
7920;DHT22;18778;47.610;9.776;2023-07-08T09:07:16;25.60;98.30
7920;DHT22;18778;47.610;9.776;2023-07-08T09:10:01;25.50;98.20
7920;DHT22;18778;47.610;9.776;2023-07-08T09:12:29;25.50;98.50
7920;DHT22;18778;47.610;9.776;2023-07-08T09:14:56;25.60;99.90
7920;DHT22;18778;47.610;9.776;2023-07-08T09:17:31;25.90;98.50
7920;DHT22;18778;47.610;9.776;2023-07-08T09:22:34;26.00;95.70
7920;DHT22;18778;47.610;9.776;2023-07-08T09:25:46;26.20;95.70
7920;DHT22;18778;47.610;9.776;2023-07-08T09:28:03;26.20;94.90
7920;DHT22;18778;47.610;9.776;2023-07-08T09:30:28;26.40;95.70
7920;DHT22;18778;47.610;9.776;2023-07-08T09:32:56;26.60;94.00
7920;DHT22;18778;47.610;9.776;2023-07-08T09:35:23;26.70;92.90
7920;DHT22;18778;47.610;9.776;2023-07-08T09:37:50;26.80;93.90
7920;DHT22;18778;47.610;9.776;2023-07-08T09:40:38;27.10;93.70
7920;DHT22;18778;47.610;9.776;2023-07-08T09:45:42;27.30;94.20
7920;DHT22;18778;47.610;9.776;2023-07-08T09:48:20;27.20;91.60
7920;DHT22;18778;47.610;9.776;2023-07-08T09:50:49;27.60;94.00
7920;DHT22;18778;47.610;9.776;2023-07-08T09:53:15;27.80;92.60
7920;DHT22;18778;47.610;9.776;2023-07-08T09:55:41;27.70;93.00
7920;DHT22;18778;47.610;9.776;2023-07-08T09:58:13;27.80;92.50
7920;DHT22;18778;47.610;9.776;2023-07-08T10:00:40;27.90;92.80
7920;DHT22;18778;47.610;9.776;2023-07-08T10:03:17;28.10;92.20
7920;DHT22;18778;47.610;9.776;2023-07-08T10:05:46;28.10;91.80
7920;DHT22;18778;47.610;9.776;2023-07-08T10:08:21;28.30;91.50
7920;DHT22;18778;47.610;9.776;2023-07-08T10:11:04;27.90;91.00
7920;DHT22;18778;47.610;9.776;2023-07-08T10:13:44;27.80;91.70
7920;DHT22;18778;47.610;9.776;2023-07-08T10:16:19;27.70;90.50
7920;DHT22;18778;47.610;9.776;2023-07-08T10:18:46;27.80;92.10
7920;DHT22;18778;47.610;9.776;2023-07-08T10:24:25;27.70;90.00
7920;DHT22;18778;47.610;9.776;2023-07-08T10:32:36;28.60;90.00
7920;DHT22;18778;47.610;9.776;2023-07-08T10:35:18;28.70;89.30
7920;DHT22;18778;47.610;9.776;2023-07-08T10:37:56;28.70;90.10
7920;DHT22;18778;47.610;9.776;2023-07-08T10:40:48;28.70;89.30
7920;DHT22;18778;47.610;9.776;2023-07-08T10:56:40;28.40;90.10
7920;DHT22;18778;47.610;9.776;2023-07-08T11:10:23;28.20;91.80
7920;DHT22;18778;47.610;9.776;2023-07-08T11:13:02;28.60;90.10
7920;DHT22;18778;47.610;9.776;2023-07-08T11:15:56;28.60;90.60
7920;DHT22;18778;47.610;9.776;2023-07-08T11:21:21;28.80;91.20
7920;DHT22;18778;47.610;9.776;2023-07-08T11:23:54;28.90;90.40
7920;DHT22;18778;47.610;9.776;2023-07-08T11:29:36;29.10;90.10
7920;DHT22;18778;47.610;9.776;2023-07-08T11:32:00;29.20;90.30
7920;DHT22;18778;47.610;9.776;2023-07-08T11:34:26;29.30;87.70
7920;DHT22;18778;47.610;9.776;2023-07-08T11:36:54;29.30;87.00
7920;DHT22;18778;47.610;9.776;2023-07-08T11:39:44;29.20;91.50
7920;DHT22;18778;47.610;9.776;2023-07-08T11:42:16;29.40;91.20
7920;DHT22;18778;47.610;9.776;2023-07-08T11:47:48;29.40;91.50
7920;DHT22;18778;47.610;9.776;2023-07-08T11:50:21;29.10;89.60
7920;DHT22;18778;47.610;9.776;2023-07-08T11:53:02;29.00;89.00
7920;DHT22;18778;47.610;9.776;2023-07-08T11:58:23;29.20;90.60
7920;DHT22;18778;47.610;9.776;2023-07-08T12:03:50;30.30;90.50
7920;DHT22;18778;47.610;9.776;2023-07-08T12:08:56;31.00;88.40
7920;DHT22;18778;47.610;9.776;2023-07-08T12:11:28;31.50;83.90
7920;DHT22;18778;47.610;9.776;2023-07-08T12:13:58;31.50;86.10
7920;DHT22;18778;47.610;9.776;2023-07-08T12:16:27;31.20;81.20
7920;DHT22;18778;47.610;9.776;2023-07-08T12:18:54;31.20;83.30
7920;DHT22;18778;47.610;9.776;2023-07-08T12:21:22;31.40;82.00
7920;DHT22;18778;47.610;9.776;2023-07-08T12:23:48;32.00;82.40
7920;DHT22;18778;47.610;9.776;2023-07-08T12:26:15;32.20;83.70
7920;DHT22;18778;47.610;9.776;2023-07-08T12:28:43;32.70;79.70
7920;DHT22;18778;47.610;9.776;2023-07-08T12:31:18;33.00;83.50
7920;DHT22;18778;47.610;9.776;2023-07-08T12:33:45;33.20;77.50
7920;DHT22;18778;47.610;9.776;2023-07-08T12:36:15;32.50;76.60
7920;DHT22;18778;47.610;9.776;2023-07-08T12:38:43;32.40;78.00
7920;DHT22;18778;47.610;9.776;2023-07-08T12:41:21;31.90;76.30
7920;DHT22;18778;47.610;9.776;2023-07-08T12:43:48;31.80;79.30
7920;DHT22;18778;47.610;9.776;2023-07-08T12:46:16;30.80;80.30
7920;DHT22;18778;47.610;9.776;2023-07-08T12:48:42;30.90;80.70
7920;DHT22;18778;47.610;9.776;2023-07-08T12:51:17;30.90;82.00
7920;DHT22;18778;47.610;9.776;2023-07-08T12:53:43;31.00;80.90
7920;DHT22;18778;47.610;9.776;2023-07-08T12:56:09;31.20;83.90
7920;DHT22;18778;47.610;9.776;2023-07-08T12:58:45;31.30;79.40
7920;DHT22;18778;47.610;9.776;2023-07-08T13:01:17;31.10;79.00
7920;DHT22;18778;47.610;9.776;2023-07-08T13:03:45;31.40;79.20
7920;DHT22;18778;47.610;9.776;2023-07-08T13:06:16;31.60;83.50
7920;DHT22;18778;47.610;9.776;2023-07-08T13:08:43;32.10;78.30
7920;DHT22;18778;47.610;9.776;2023-07-08T13:11:14;32.00;83.50
7920;DHT22;18778;47.610;9.776;2023-07-08T13:13:59;32.30;77.50
7920;DHT22;18778;47.610;9.776;2023-07-08T13:16:31;32.40;79.80
7920;DHT22;18778;47.610;9.776;2023-07-08T13:18:57;32.40;81.20
7920;DHT22;18778;47.610;9.776;2023-07-08T13:21:23;32.30;76.90
7920;DHT22;18778;47.610;9.776;2023-07-08T13:23:50;32.40;79.50
7920;DHT22;18778;47.610;9.776;2023-07-08T13:26:18;32.80;78.00
7920;DHT22;18778;47.610;9.776;2023-07-08T13:28:45;32.90;75.00
7920;DHT22;18778;47.610;9.776;2023-07-08T13:31:19;32.70;75.00
7920;DHT22;18778;47.610;9.776;2023-07-08T13:33:47;32.20;77.30
7920;DHT22;18778;47.610;9.776;2023-07-08T13:38:39;30.70;85.90
7920;DHT22;18778;47.610;9.776;2023-07-08T13:41:07;30.90;90.20
7920;DHT22;18778;47.610;9.776;2023-07-08T13:43:37;31.50;89.80
7920;DHT22;18778;47.610;9.776;2023-07-08T13:46:04;31.90;80.80
7920;DHT22;18778;47.610;9.776;2023-07-08T13:48:37;32.10;80.80
7920;DHT22;18778;47.610;9.776;2023-07-08T13:53:57;31.70;79.60
7920;DHT22;18778;47.610;9.776;2023-07-08T13:56:30;31.80;81.00
7920;DHT22;18778;47.610;9.776;2023-07-08T13:59:05;32.00;87.30
7920;DHT22;18778;47.610;9.776;2023-07-08T14:01:32;32.10;88.60
7920;DHT22;18778;47.610;9.776;2023-07-08T14:03:59;32.00;89.40
7920;DHT22;18778;47.610;9.776;2023-07-08T14:06:33;31.90;84.30
7920;DHT22;18778;47.610;9.776;2023-07-08T14:09:18;32.00;88.50
7920;DHT22;18778;47.610;9.776;2023-07-08T14:11:45;32.30;84.70
7920;DHT22;18778;47.610;9.776;2023-07-08T14:14:11;32.10;84.50
7920;DHT22;18778;47.610;9.776;2023-07-08T14:16:43;31.20;85.00
7920;DHT22;18778;47.610;9.776;2023-07-08T14:19:14;30.20;87.70
7920;DHT22;18778;47.610;9.776;2023-07-08T14:21:41;29.70;90.20
7920;DHT22;18778;47.610;9.776;2023-07-08T14:24:11;29.50;91.50
7920;DHT22;18778;47.610;9.776;2023-07-08T14:26:41;30.40;90.40
7920;DHT22;18778;47.610;9.776;2023-07-08T14:29:06;31.10;89.10
7920;DHT22;18778;47.610;9.776;2023-07-08T14:31:32;31.20;87.70
7920;DHT22;18778;47.610;9.776;2023-07-08T14:34:03;31.50;87.00
7920;DHT22;18778;47.610;9.776;2023-07-08T14:36:31;31.70;85.90
7920;DHT22;18778;47.610;9.776;2023-07-08T14:38:56;32.30;83.70
7920;DHT22;18778;47.610;9.776;2023-07-08T14:41:23;33.60;80.00
7920;DHT22;18778;47.610;9.776;2023-07-08T14:43:48;35.20;76.40
7920;DHT22;18778;47.610;9.776;2023-07-08T14:46:14;36.80;74.40
7920;DHT22;18778;47.610;9.776;2023-07-08T14:48:41;38.60;68.80
7920;DHT22;18778;47.610;9.776;2023-07-08T14:51:07;39.10;64.50
7920;DHT22;18778;47.610;9.776;2023-07-08T14:53:33;40.00;61.10
7920;DHT22;18778;47.610;9.776;2023-07-08T14:56:02;40.60;58.90
7920;DHT22;18778;47.610;9.776;2023-07-08T14:58:33;40.60;55.20
7920;DHT22;18778;47.610;9.776;2023-07-08T15:01:11;40.80;56.60
7920;DHT22;18778;47.610;9.776;2023-07-08T15:03:37;41.20;55.30
7920;DHT22;18778;47.610;9.776;2023-07-08T15:06:08;41.80;52.60
7920;DHT22;18778;47.610;9.776;2023-07-08T15:08:35;42.10;51.00
7920;DHT22;18778;47.610;9.776;2023-07-08T15:11:01;41.90;51.90
7920;DHT22;18778;47.610;9.776;2023-07-08T15:13:28;41.90;51.00
7920;DHT22;18778;47.610;9.776;2023-07-08T15:15:54;42.10;49.10
7920;DHT22;18778;47.610;9.776;2023-07-08T15:18:19;41.80;47.40
7920;DHT22;18778;47.610;9.776;2023-07-08T15:20:45;41.30;47.70
7920;DHT22;18778;47.610;9.776;2023-07-08T15:23:11;41.60;47.80
7920;DHT22;18778;47.610;9.776;2023-07-08T15:25:41;41.40;48.90
7920;DHT22;18778;47.610;9.776;2023-07-08T15:28:17;41.30;47.40
7920;DHT22;18778;47.610;9.776;2023-07-08T15:30:43;41.30;48.00
7920;DHT22;18778;47.610;9.776;2023-07-08T15:33:10;41.40;49.90
7920;DHT22;18778;47.610;9.776;2023-07-08T15:38:02;41.00;47.10
7920;DHT22;18778;47.610;9.776;2023-07-08T15:40:34;41.10;47.60
7920;DHT22;18778;47.610;9.776;2023-07-08T15:43:01;40.50;48.30
7920;DHT22;18778;47.610;9.776;2023-07-08T15:45:35;40.20;48.60
7920;DHT22;18778;47.610;9.776;2023-07-08T15:48:02;40.70;52.40
7920;DHT22;18778;47.610;9.776;2023-07-08T15:52:54;40.80;50.70
7920;DHT22;18778;47.610;9.776;2023-07-08T15:55:25;40.40;49.60
7920;DHT22;18778;47.610;9.776;2023-07-08T15:57:56;40.10;51.20
7920;DHT22;18778;47.610;9.776;2023-07-08T16:00:27;40.30;53.80
7920;DHT22;18778;47.610;9.776;2023-07-08T16:02:58;40.40;51.10
7920;DHT22;18778;47.610;9.776;2023-07-08T16:05:25;40.80;52.30
7920;DHT22;18778;47.610;9.776;2023-07-08T16:07:52;41.50;51.20
7920;DHT22;18778;47.610;9.776;2023-07-08T16:10:18;42.00;50.80
7920;DHT22;18778;47.610;9.776;2023-07-08T16:12:45;42.30;48.90
7920;DHT22;18778;47.610;9.776;2023-07-08T16:15:22;42.50;49.30
7920;DHT22;18778;47.610;9.776;2023-07-08T16:17:50;43.00;46.90
7920;DHT22;18778;47.610;9.776;2023-07-08T16:20:16;41.60;46.60
7920;DHT22;18778;47.610;9.776;2023-07-08T16:22:42;43.20;46.00
7920;DHT22;18778;47.610;9.776;2023-07-08T16:25:14;42.40;45.90
7920;DHT22;18778;47.610;9.776;2023-07-08T16:27:47;41.90;48.60
7920;DHT22;18778;47.610;9.776;2023-07-08T16:30:16;42.40;50.10
7920;DHT22;18778;47.610;9.776;2023-07-08T16:32:43;42.40;47.80
7920;DHT22;18778;47.610;9.776;2023-07-08T16:35:15;42.20;45.50
7920;DHT22;18778;47.610;9.776;2023-07-08T16:37:41;42.00;46.40
7920;DHT22;18778;47.610;9.776;2023-07-08T16:40:14;42.40;45.80
7920;DHT22;18778;47.610;9.776;2023-07-08T16:42:42;42.30;46.70
7920;DHT22;18778;47.610;9.776;2023-07-08T16:45:10;42.10;47.00
7920;DHT22;18778;47.610;9.776;2023-07-08T16:47:36;41.80;45.50
7920;DHT22;18778;47.610;9.776;2023-07-08T16:50:02;42.10;46.50
7920;DHT22;18778;47.610;9.776;2023-07-08T16:52:28;41.90;44.40
7920;DHT22;18778;47.610;9.776;2023-07-08T16:54:53;41.40;45.60
7920;DHT22;18778;47.610;9.776;2023-07-08T16:57:19;41.30;44.40
7920;DHT22;18778;47.610;9.776;2023-07-08T16:59:44;41.20;44.90
7920;DHT22;18778;47.610;9.776;2023-07-08T17:02:14;41.30;46.60
7920;DHT22;18778;47.610;9.776;2023-07-08T17:04:44;41.20;47.50
7920;DHT22;18778;47.610;9.776;2023-07-08T17:07:11;41.30;47.30
7920;DHT22;18778;47.610;9.776;2023-07-08T17:09:37;41.40;47.90
7920;DHT22;18778;47.610;9.776;2023-07-08T17:12:05;41.40;46.30
7920;DHT22;18778;47.610;9.776;2023-07-08T17:14:31;40.50;48.20
7920;DHT22;18778;47.610;9.776;2023-07-08T17:16:56;39.30;50.30
7920;DHT22;18778;47.610;9.776;2023-07-08T17:19:22;36.50;54.70
7920;DHT22;18778;47.610;9.776;2023-07-08T17:21:47;36.30;55.70
7920;DHT22;18778;47.610;9.776;2023-07-08T17:24:14;35.00;56.70
7920;DHT22;18778;47.610;9.776;2023-07-08T17:26:41;33.90;58.90
7920;DHT22;18778;47.610;9.776;2023-07-08T17:29:07;33.10;60.10
7920;DHT22;18778;47.610;9.776;2023-07-08T17:31:33;32.30;61.40
7920;DHT22;18778;47.610;9.776;2023-07-08T17:33:59;31.70;62.80